Time;durP1;ratioP1;P1;durP2;ratioP2;P2;SDS_P1;SDS_P2;PMS_P1;PMS_P2;Temp;Humidity;BMP_temperature;BMP_pressure;BME280_temperature;BME280_humidity;BME280_pressure;Samples;Min_cycle;Max_cycle;Signal;HPM_P1;HPM_P2
2023/09/12 00:00:55;;;;;;;21.50;19.25;;;22.90;99.90;;;;;;5056718;28;20021;-87
2023/09/12 00:03:22;;;;;;;22.45;20.08;;;22.90;99.90;;;;;;5056448;28;20354;-87
2023/09/12 00:05:52;;;;;;;26.75;20.70;;;22.90;99.90;;;;;;5041953;28;20025;-87
2023/09/12 00:08:18;;;;;;;25.77;21.15;;;22.90;99.90;;;;;;5036764;28;20346;-87
2023/09/12 00:10:43;;;;;;;25.05;19.98;;;22.90;99.90;;;;;;5036628;28;20023;-87
2023/09/12 00:13:09;;;;;;;28.17;21.38;;;22.90;99.90;;;;;;5024156;28;20469;-88
2023/09/12 00:15:37;;;;;;;22.70;20.27;;;22.90;99.90;;;;;;5046838;28;20013;-88
2023/09/12 00:18:03;;;;;;;24.83;21.60;;;22.80;99.90;;;;;;5078626;28;20013;-86
2023/09/12 00:20:28;;;;;;;24.25;20.92;;;22.80;99.90;;;;;;5056876;28;20032;-87
2023/09/12 00:22:54;;;;;;;24.48;21.67;;;22.80;99.90;;;;;;5043125;28;20036;-87
2023/09/12 00:25:22;;;;;;;26.48;20.88;;;22.80;99.90;;;;;;5076583;28;20058;-85
2023/09/12 00:27:48;;;;;;;21.42;19.17;;;22.80;99.90;;;;;;5027067;28;20107;-87
2023/09/12 00:30:14;;;;;;;23.40;20.90;;;22.70;99.90;;;;;;5074966;28;20166;-87
2023/09/12 00:32:40;;;;;;;26.00;20.40;;;22.80;99.90;;;;;;5056017;28;20017;-87
2023/09/12 00:35:06;;;;;;;25.90;20.88;;;22.70;99.90;;;;;;5039078;28;20051;-87
2023/09/12 00:37:32;;;;;;;23.05;20.63;;;22.70;99.90;;;;;;5019698;28;20025;-87
2023/09/12 00:39:58;;;;;;;24.95;20.75;;;22.70;99.90;;;;;;5019624;28;20028;-87
2023/09/12 00:42:26;;;;;;;26.35;19.83;;;22.70;99.90;;;;;;5045305;28;20030;-88
2023/09/12 00:44:52;;;;;;;23.65;21.05;;;22.70;99.90;;;;;;5055469;28;20119;-87
2023/09/12 00:47:20;;;;;;;23.15;20.67;;;22.70;99.90;;;;;;5073615;28;20471;-87
2023/09/12 00:49:47;;;;;;;23.33;20.40;;;22.70;99.90;;;;;;5019354;28;20108;-87
2023/09/12 00:52:13;;;;;;;24.35;20.95;;;22.70;99.90;;;;;;5019652;28;20029;-87
2023/09/12 00:54:40;;;;;;;24.90;22.20;;;22.70;99.90;;;;;;5035934;28;20064;-88
2023/09/12 00:57:06;;;;;;;28.23;23.27;;;22.70;99.90;;;;;;5019197;28;20079;-88
2023/09/12 00:59:32;;;;;;;24.50;21.83;;;22.60;99.90;;;;;;5022800;28;20032;-87
2023/09/12 01:01:59;;;;;;;26.63;21.98;;;22.60;99.90;;;;;;5022577;28;20514;-87
2023/09/12 01:04:25;;;;;;;23.90;21.20;;;22.60;99.90;;;;;;5038885;28;20035;-87
2023/09/12 01:06:51;;;;;;;23.67;20.88;;;22.60;99.90;;;;;;5039229;28;20115;-88
2023/09/12 01:09:17;;;;;;;25.95;21.05;;;22.60;99.90;;;;;;5073142;28;20024;-88
2023/09/12 01:11:43;;;;;;;27.00;21.08;;;22.60;99.90;;;;;;5073397;28;20032;-87
2023/09/12 01:14:09;;;;;;;24.63;20.15;;;22.60;99.90;;;;;;5036269;28;20029;-87
2023/09/12 01:16:35;;;;;;;23.98;20.73;;;22.60;99.90;;;;;;5055543;28;20060;-87
2023/09/12 01:19:01;;;;;;;22.75;20.20;;;22.60;99.90;;;;;;5042190;28;20067;-87
2023/09/12 01:22:18;;;;;;;27.42;21.10;;;22.50;99.90;;;;;;5055599;28;20028;-88
2023/09/12 01:25:08;;;;;;;25.75;21.48;;;22.50;99.90;;;;;;5008714;28;20073;-88
2023/09/12 01:27:47;;;;;;;23.67;21.07;;;22.40;99.90;;;;;;5053275;28;20021;-87
2023/09/12 01:30:22;;;;;;;23.05;20.25;;;22.40;99.90;;;;;;5046058;28;20282;-88
2023/09/12 01:32:49;;;;;;;24.60;21.15;;;22.30;99.90;;;;;;5048805;28;20025;-88
2023/09/12 01:35:15;;;;;;;23.45;20.80;;;22.30;99.90;;;;;;5050149;28;20024;-87
2023/09/12 01:37:40;;;;;;;24.65;20.80;;;22.30;99.90;;;;;;5044460;28;20024;-88
2023/09/12 01:40:07;;;;;;;22.33;19.92;;;22.20;99.90;;;;;;5040618;28;20091;-86
2023/09/12 01:42:38;;;;;;;23.17;19.52;;;22.20;99.90;;;;;;5058746;28;20154;-88
2023/09/12 01:45:05;;;;;;;20.83;18.60;;;22.20;99.90;;;;;;5058969;28;20041;-88
2023/09/12 01:47:32;;;;;;;24.85;19.02;;;22.20;99.90;;;;;;5042663;28;20012;-87
2023/09/12 01:50:00;;;;;;;21.95;19.65;;;22.20;99.90;;;;;;5050801;28;20028;-87
2023/09/12 01:52:27;;;;;;;21.20;18.98;;;22.20;99.90;;;;;;5060871;28;20032;-87
2023/09/12 01:54:55;;;;;;;21.88;19.52;;;22.10;99.90;;;;;;5026401;28;20035;-88
2023/09/12 01:57:21;;;;;;;20.20;17.95;;;22.10;99.90;;;;;;5077026;28;20021;-88
2023/09/12 01:59:48;;;;;;;21.63;19.33;;;22.10;99.90;;;;;;5051007;28;20082;-87
2023/09/12 02:02:18;;;;;;;21.63;18.23;;;22.10;99.90;;;;;;5056894;28;20368;-87
2023/09/12 02:05:02;;;;;;;21.73;19.23;;;22.00;99.90;;;;;;5039691;28;20071;-88
2023/09/12 02:07:32;;;;;;;21.83;19.40;;;22.00;99.90;;;;;;5069572;28;20414;-88
2023/09/12 02:09:57;;;;;;;20.90;18.08;;;22.00;99.90;;;;;;5076643;28;20012;-87
2023/09/12 02:12:23;;;;;;;21.95;19.60;;;21.90;99.90;;;;;;5040447;28;20075;-87
2023/09/12 02:14:49;;;;;;;24.15;19.85;;;22.00;99.90;;;;;;5039961;28;20025;-88
2023/09/12 02:17:14;;;;;;;23.25;19.38;;;21.90;99.90;;;;;;5023766;28;20005;-88
2023/09/12 02:19:40;;;;;;;22.58;18.63;;;21.90;99.90;;;;;;5033579;28;20013;-88
2023/09/12 02:22:05;;;;;;;22.65;18.88;;;21.90;99.90;;;;;;5063479;28;20023;-88
2023/09/12 02:24:34;;;;;;;20.67;17.60;;;21.80;99.90;;;;;;5076867;28;20080;-87
2023/09/12 02:27:00;;;;;;;20.52;18.02;;;21.90;99.90;;;;;;5080723;28;20017;-86
2023/09/12 02:29:26;;;;;;;22.33;18.00;;;21.80;99.90;;;;;;5037154;28;20028;-87
2023/09/12 02:31:51;;;;;;;19.23;16.25;;;21.80;99.90;;;;;;5063338;28;20465;-89
2023/09/12 02:34:17;;;;;;;18.20;16.38;;;21.80;99.90;;;;;;5024636;28;20032;-88
2023/09/12 02:36:43;;;;;;;18.85;16.95;;;21.80;99.90;;;;;;5063810;28;20479;-87
2023/09/12 02:39:08;;;;;;;20.58;17.83;;;21.70;99.90;;;;;;5069704;28;20024;-88
2023/09/12 02:41:34;;;;;;;21.08;17.13;;;21.70;99.90;;;;;;5017263;28;20024;-88
2023/09/12 02:44:00;;;;;;;19.00;17.00;;;21.70;99.90;;;;;;5047930;28;20420;-88
2023/09/12 02:46:25;;;;;;;18.90;17.00;;;21.70;99.90;;;;;;5050684;28;20059;-88
2023/09/12 02:48:51;;;;;;;19.17;17.17;;;21.60;99.90;;;;;;5031402;28;20056;-87
2023/09/12 02:51:17;;;;;;;19.85;17.10;;;21.60;99.90;;;;;;5047493;28;20468;-87
2023/09/12 02:53:45;;;;;;;17.75;16.00;;;21.60;99.90;;;;;;5037929;28;20043;-87
2023/09/12 02:56:10;;;;;;;19.05;16.90;;;21.60;99.90;;;;;;5038686;28;20032;-87
2023/09/12 02:58:36;;;;;;;18.33;16.42;;;21.50;99.90;;;;;;5025723;28;20021;-88
2023/09/12 03:01:03;;;;;;;18.42;16.50;;;21.50;99.90;;;;;;5041528;28;20033;-88
2023/09/12 03:03:29;;;;;;;18.90;16.65;;;21.60;99.90;;;;;;5041549;28;20468;-87
2023/09/12 03:06:03;;;;;;;18.55;16.52;;;21.50;99.90;;;;;;5041120;28;20031;-86
2023/09/12 03:08:29;;;;;;;18.20;16.08;;;21.50;99.90;;;;;;5047769;28;20369;-89
2023/09/12 03:10:55;;;;;;;16.40;14.15;;;21.50;99.90;;;;;;5033321;28;20017;-89
2023/09/12 03:13:24;;;;;;;16.10;14.43;;;21.40;99.90;;;;;;5045093;28;20048;-88
2023/09/12 03:15:49;;;;;;;17.45;15.48;;;21.40;99.90;;;;;;5055141;28;20437;-87
2023/09/12 03:18:15;;;;;;;15.85;14.13;;;21.40;99.90;;;;;;5021364;28;20032;-88
2023/09/12 03:20:40;;;;;;;15.60;14.00;;;21.40;99.90;;;;;;5039026;28;20134;-88
2023/09/12 03:23:06;;;;;;;15.40;13.90;;;21.40;99.90;;;;;;5029603;28;20527;-88
2023/09/12 03:25:37;;;;;;;14.77;12.90;;;21.30;99.90;;;;;;5033713;28;20017;-88
2023/09/12 03:28:06;;;;;;;14.93;13.35;;;21.30;99.90;;;;;;5042473;28;20457;-87
2023/09/12 03:30:36;;;;;;;15.13;13.60;;;21.30;99.90;;;;;;5054988;28;20021;-88
2023/09/12 03:33:05;;;;;;;17.50;14.27;;;21.30;99.90;;;;;;5037231;28;20461;-88
2023/09/12 03:35:34;;;;;;;16.25;13.48;;;21.20;99.90;;;;;;5051060;28;20009;-87
2023/09/12 03:38:00;;;;;;;15.75;14.05;;;21.30;99.90;;;;;;5042634;28;20025;-88
2023/09/12 03:40:30;;;;;;;16.48;14.05;;;21.20;99.90;;;;;;5042913;28;20099;-88
2023/09/12 03:42:56;;;;;;;16.45;14.82;;;21.20;99.90;;;;;;5067500;28;20052;-88
2023/09/12 03:45:21;;;;;;;17.23;13.57;;;21.20;99.90;;;;;;5056325;28;20090;-88
2023/09/12 03:47:47;;;;;;;16.25;14.38;;;21.20;99.90;;;;;;5054067;28;20020;-87
2023/09/12 03:50:16;;;;;;;15.07;13.52;;;21.20;99.90;;;;;;5074529;28;20341;-87
2023/09/12 03:52:42;;;;;;;15.23;13.07;;;21.20;99.90;;;;;;5057184;28;20035;-87
2023/09/12 03:55:08;;;;;;;16.98;14.10;;;21.20;99.90;;;;;;5056749;28;20024;-89
2023/09/12 03:57:33;;;;;;;16.10;14.43;;;21.20;99.90;;;;;;5056898;28;20369;-88
2023/09/12 03:59:59;;;;;;;16.35;14.68;;;21.20;99.90;;;;;;5036573;28;20021;-87
2023/09/12 04:02:25;;;;;;;16.35;14.65;;;21.20;99.90;;;;;;5020647;28;20428;-87
2023/09/12 04:04:51;;;;;;;17.67;15.00;;;21.20;99.90;;;;;;5020968;28;20019;-88
2023/09/12 04:07:17;;;;;;;16.95;13.77;;;21.20;99.90;;;;;;5030198;28;20021;-87
2023/09/12 04:09:43;;;;;;;16.98;15.18;;;21.10;99.90;;;;;;5069320;28;20035;-88
2023/09/12 04:12:11;;;;;;;16.45;14.07;;;21.10;99.90;;;;;;5080666;28;20017;-87
2023/09/12 04:14:37;;;;;;;15.95;14.25;;;21.10;99.90;;;;;;5053375;28;20017;-87
2023/09/12 04:17:03;;;;;;;16.35;14.65;;;21.10;99.90;;;;;;5031660;28;20459;-87
2023/09/12 04:19:31;;;;;;;15.73;14.13;;;21.10;99.90;;;;;;5041260;28;20460;-87
2023/09/12 04:21:57;;;;;;;17.45;14.70;;;21.10;99.90;;;;;;5055237;28;20047;-87
2023/09/12 04:24:22;;;;;;;14.50;13.00;;;21.10;99.90;;;;;;5075696;28;20005;-87
2023/09/12 04:26:48;;;;;;;15.10;12.27;;;21.00;99.90;;;;;;5016372;28;20025;-87
2023/09/12 04:29:14;;;;;;;12.07;10.85;;;21.10;99.90;;;;;;5041536;28;20321;-87
2023/09/12 04:31:39;;;;;;;12.60;11.30;;;21.00;99.90;;;;;;5037092;28;20108;-89
2023/09/12 04:34:05;;;;;;;11.95;10.75;;;21.00;99.90;;;;;;5058261;28;20025;-86
2023/09/12 04:36:31;;;;;;;11.50;10.38;;;21.00;99.90;;;;;;5064353;28;20028;-86
2023/09/12 04:38:56;;;;;;;11.68;10.57;;;21.00;99.90;;;;;;5028521;28;20471;-86
2023/09/12 04:41:22;;;;;;;12.05;10.32;;;20.90;99.90;;;;;;5048479;28;20024;-86
2023/09/12 04:43:48;;;;;;;11.18;9.88;;;21.00;99.90;;;;;;5032648;28;20032;-86
2023/09/12 04:46:13;;;;;;;12.35;11.05;;;21.00;99.90;;;;;;5029951;28;20044;-86
2023/09/12 04:48:39;;;;;;;14.55;13.05;;;21.00;99.90;;;;;;5037179;28;20027;-86
2023/09/12 04:51:05;;;;;;;19.45;15.23;;;21.00;99.90;;;;;;5036978;28;20119;-87
2023/09/12 04:53:34;;;;;;;20.70;17.15;;;21.00;99.90;;;;;;5045637;28;20021;-86
2023/09/12 04:56:03;;;;;;;22.55;18.08;;;21.00;99.90;;;;;;5057968;28;20028;-87
2023/09/12 04:58:29;;;;;;;23.27;19.65;;;21.00;99.90;;;;;;5036079;28;20444;-86
2023/09/12 05:00:55;;;;;;;26.00;19.92;;;21.00;99.90;;;;;;5048168;28;20111;-86
2023/09/12 05:03:22;;;;;;;32.80;23.10;;;21.10;99.90;;;;;;5026129;28;20067;-87
2023/09/12 05:05:49;;;;;;;40.08;21.83;;;21.10;99.90;;;;;;5066458;28;20021;-87
2023/09/12 05:08:15;;;;;;;23.38;20.08;;;21.10;99.90;;;;;;5066010;28;20055;-87
2023/09/12 05:10:41;;;;;;;22.48;18.77;;;21.10;99.90;;;;;;5032560;28;20055;-87
2023/09/12 05:13:06;;;;;;;22.73;18.05;;;21.20;99.90;;;;;;5036848;28;20107;-87
2023/09/12 05:15:32;;;;;;;24.45;18.50;;;21.20;99.90;;;;;;5023285;28;20028;-87
2023/09/12 05:17:57;;;;;;;24.38;20.15;;;21.20;99.90;;;;;;5067500;28;20023;-88
2023/09/12 05:20:23;;;;;;;26.95;21.00;;;21.30;99.90;;;;;;5060174;28;20031;-87
2023/09/12 05:22:49;;;;;;;32.17;21.52;;;21.30;99.90;;;;;;5039182;28;20041;-85
2023/09/12 05:25:14;;;;;;;24.90;22.02;;;21.30;99.90;;;;;;5047949;28;20025;-87
2023/09/12 05:27:40;;;;;;;31.30;21.85;;;21.30;99.90;;;;;;5039766;28;20025;-87
2023/09/12 05:30:06;;;;;;;30.23;22.83;;;21.40;99.90;;;;;;5022928;28;20360;-87
2023/09/12 05:32:32;;;;;;;28.75;22.85;;;21.40;99.90;;;;;;5039691;28;20039;-87
2023/09/12 05:34:57;;;;;;;29.48;24.48;;;21.40;99.90;;;;;;5042593;28;20021;-87
2023/09/12 05:37:23;;;;;;;30.02;24.45;;;21.40;99.90;;;;;;5042277;28;20028;-87
2023/09/12 05:39:48;;;;;;;34.38;25.30;;;21.40;99.90;;;;;;5077261;28;20029;-87
2023/09/12 05:42:20;;;;;;;35.35;26.70;;;21.40;99.90;;;;;;5025633;28;20047;-87
2023/09/12 05:44:47;;;;;;;32.47;25.80;;;21.40;99.90;;;;;;5043388;28;20494;-87
2023/09/12 05:47:12;;;;;;;30.85;24.65;;;21.40;99.90;;;;;;5047490;28;20087;-88
2023/09/12 05:49:38;;;;;;;30.60;25.45;;;21.40;99.90;;;;;;5039308;28;20067;-87
2023/09/12 05:52:04;;;;;;;32.75;25.42;;;21.40;99.90;;;;;;5006121;28;20022;-87
2023/09/12 05:54:30;;;;;;;29.30;23.70;;;21.40;99.90;;;;;;5035576;28;20400;-87
2023/09/12 05:56:55;;;;;;;32.05;25.83;;;21.40;99.90;;;;;;5059026;28;20157;-87
2023/09/12 05:59:21;;;;;;;31.00;26.00;;;21.40;99.90;;;;;;5042154;28;20035;-87
2023/09/12 06:01:48;;;;;;;32.88;26.20;;;21.40;99.90;;;;;;5058909;28;20016;-87
2023/09/12 06:04:14;;;;;;;33.22;27.00;;;21.40;99.90;;;;;;5026293;28;20031;-87
2023/09/12 06:06:40;;;;;;;31.70;25.95;;;21.40;99.90;;;;;;5026105;28;20020;-87
2023/09/12 06:09:06;;;;;;;34.17;26.48;;;21.50;99.90;;;;;;5073652;28;20059;-87
2023/09/12 06:11:31;;;;;;;31.10;26.77;;;21.50;99.90;;;;;;5076612;28;20044;-87
2023/09/12 06:13:57;;;;;;;30.52;25.55;;;21.50;99.90;;;;;;5023679;28;20443;-86
2023/09/12 06:16:23;;;;;;;31.13;26.58;;;21.50;99.90;;;;;;5044855;28;20036;-87
2023/09/12 06:18:48;;;;;;;33.60;27.10;;;21.50;99.90;;;;;;5073361;28;20088;-87
2023/09/12 06:21:14;;;;;;;30.85;26.58;;;21.50;99.90;;;;;;5083379;28;20849;-87
2023/09/12 06:23:40;;;;;;;32.60;26.73;;;21.60;99.90;;;;;;5066641;28;20020;-87
2023/09/12 06:26:05;;;;;;;34.13;27.33;;;21.60;99.90;;;;;;5092492;28;20038;-85
2023/09/12 06:28:32;;;;;;;36.10;26.85;;;21.60;99.90;;;;;;5063802;28;20055;-88
2023/09/12 06:30:58;;;;;;;35.35;27.65;;;21.60;99.90;;;;;;5065667;28;20071;-86
2023/09/12 06:33:25;;;;;;;34.13;27.90;;;21.60;99.90;;;;;;5058803;28;20032;-88
2023/09/12 06:35:53;;;;;;;37.33;29.23;;;21.70;99.90;;;;;;5042076;28;20025;-87
2023/09/12 06:38:20;;;;;;;38.33;29.35;;;21.70;99.90;;;;;;5039850;28;20048;-87
2023/09/12 06:40:47;;;;;;;40.22;30.33;;;21.70;99.90;;;;;;5039449;28;20484;-87
2023/09/12 06:43:13;;;;;;;39.17;30.70;;;21.70;99.90;;;;;;5021349;28;20044;-87
2023/09/12 06:45:41;;;;;;;37.92;30.70;;;21.70;99.90;;;;;;5037789;28;20461;-87
2023/09/12 06:48:06;;;;;;;39.25;29.67;;;21.80;99.90;;;;;;5037627;28;20059;-87
2023/09/12 06:50:32;;;;;;;37.50;31.00;;;21.80;99.90;;;;;;5037115;28;20060;-88
2023/09/12 06:53:00;;;;;;;40.78;30.70;;;21.70;99.90;;;;;;5057884;28;20051;-85
2023/09/12 06:55:27;;;;;;;40.58;30.58;;;21.80;99.90;;;;;;5041612;28;20031;-87
2023/09/12 06:57:53;;;;;;;40.15;31.20;;;21.80;99.90;;;;;;5057792;28;20154;-87
2023/09/12 07:00:19;;;;;;;41.33;30.63;;;21.80;99.90;;;;;;5015784;28;20422;-88
2023/09/12 07:02:45;;;;;;;40.35;31.15;;;21.80;99.90;;;;;;5037744;28;20037;-87
2023/09/12 07:05:11;;;;;;;38.67;30.98;;;21.80;99.90;;;;;;5004675;28;20031;-86
2023/09/12 07:07:37;;;;;;;43.28;32.00;;;21.80;99.90;;;;;;5037404;28;20399;-88
2023/09/12 07:10:03;;;;;;;41.53;30.85;;;21.80;99.90;;;;;;5020797;28;20036;-87
2023/09/12 07:12:29;;;;;;;40.63;30.58;;;21.80;99.90;;;;;;5039156;28;20066;-87
2023/09/12 07:14:55;;;;;;;39.90;31.13;;;21.80;99.90;;;;;;5057813;28;20044;-87
2023/09/12 07:17:21;;;;;;;42.00;30.02;;;21.80;99.90;;;;;;5057277;28;20063;-87
2023/09/12 07:19:47;;;;;;;39.47;31.95;;;21.90;99.90;;;;;;5057201;28;20361;-87
2023/09/12 07:22:13;;;;;;;39.20;31.30;;;21.90;99.90;;;;;;5004259;28;20422;-87
2023/09/12 07:24:38;;;;;;;40.50;31.98;;;21.90;99.90;;;;;;5026536;28;20044;-88
2023/09/12 07:27:04;;;;;;;39.22;30.98;;;22.00;99.90;;;;;;5057119;28;20025;-87
2023/09/12 07:29:31;;;;;;;41.63;30.23;;;22.00;99.90;;;;;;5040553;28;20023;-87
2023/09/12 07:31:56;;;;;;;37.70;29.23;;;22.00;99.90;;;;;;5040572;28;20481;-87
2023/09/12 07:34:24;;;;;;;42.95;30.88;;;22.00;99.90;;;;;;5038132;28;20037;-87
2023/09/12 07:36:51;;;;;;;42.08;30.77;;;22.10;99.90;;;;;;5029372;28;20021;-87
2023/09/12 07:39:17;;;;;;;34.42;29.77;;;22.00;99.90;;;;;;5037055;28;20103;-88
2023/09/12 07:41:43;;;;;;;38.92;29.73;;;22.10;99.90;;;;;;5024065;28;20043;-88
2023/09/12 07:44:11;;;;;;;37.13;29.52;;;22.10;99.90;;;;;;5056502;28;20028;-87
2023/09/12 07:46:37;;;;;;;34.97;28.75;;;22.10;99.90;;;;;;5056732;28;20448;-87
2023/09/12 07:49:03;;;;;;;35.88;28.17;;;22.10;99.90;;;;;;5074553;28;20016;-87
2023/09/12 07:51:29;;;;;;;38.45;29.65;;;22.20;99.90;;;;;;5022065;28;20032;-87
2023/09/12 07:53:54;;;;;;;38.17;29.73;;;22.20;99.90;;;;;;5021667;28;20021;-87
2023/09/12 07:56:20;;;;;;;38.05;29.77;;;22.20;99.90;;;;;;5050229;28;20028;-87
2023/09/12 07:58:45;;;;;;;39.80;30.52;;;22.30;99.90;;;;;;5040115;28;20021;-87
2023/09/12 08:01:11;;;;;;;36.47;28.63;;;22.30;99.90;;;;;;5040187;28;20365;-87
2023/09/12 08:03:39;;;;;;;39.33;30.15;;;22.30;99.90;;;;;;5039789;28;20067;-87
2023/09/12 08:06:05;;;;;;;37.22;28.27;;;22.40;99.90;;;;;;5020428;28;20460;-87
2023/09/12 08:08:31;;;;;;;36.92;29.15;;;22.40;99.90;;;;;;5054371;28;20070;-87
2023/09/12 08:10:57;;;;;;;35.72;28.85;;;22.40;99.90;;;;;;5052741;28;20021;-87
2023/09/12 08:13:27;;;;;;;37.00;29.30;;;22.40;99.90;;;;;;5036945;28;20025;-87
2023/09/12 08:15:53;;;;;;;36.03;30.05;;;22.40;99.90;;;;;;5041970;28;20052;-87
2023/09/12 08:18:18;;;;;;;36.35;29.02;;;22.40;99.90;;;;;;5030303;28;20025;-87
2023/09/12 08:20:44;;;;;;;36.75;29.48;;;22.50;99.90;;;;;;5069889;28;20043;-87
2023/09/12 08:23:10;;;;;;;34.20;29.88;;;22.50;99.90;;;;;;5047842;28;20025;-86
2023/09/12 08:25:35;;;;;;;38.28;29.48;;;22.60;99.90;;;;;;5045866;28;20023;-87
2023/09/12 08:28:01;;;;;;;39.42;30.92;;;22.60;99.90;;;;;;5066523;28;20009;-85
2023/09/12 08:30:29;;;;;;;45.53;34.92;;;22.60;99.90;;;;;;5078757;28;20024;-86
2023/09/12 08:32:55;;;;;;;36.00;30.60;;;22.60;99.90;;;;;;5048725;28;20028;-86
2023/09/12 08:35:21;;;;;;;37.05;28.58;;;22.60;99.90;;;;;;5069772;28;20031;-87
2023/09/12 08:37:47;;;;;;;34.03;28.10;;;22.60;99.90;;;;;;5062147;28;20416;-87
2023/09/12 08:40:13;;;;;;;33.95;27.60;;;22.70;99.90;;;;;;5058682;28;20056;-86
2023/09/12 08:42:44;;;;;;;34.15;27.10;;;22.70;99.90;;;;;;5064889;28;20036;-87
2023/09/12 08:45:16;;;;;;;34.00;26.55;;;22.70;99.90;;;;;;5055264;28;20012;-87
2023/09/12 08:47:49;;;;;;;35.58;27.10;;;22.70;99.90;;;;;;5055807;28;20478;-86
2023/09/12 08:50:16;;;;;;;34.65;26.55;;;22.70;99.90;;;;;;5055346;28;20017;-87
2023/09/12 08:52:44;;;;;;;33.15;25.67;;;22.80;99.90;;;;;;5038980;28;20510;-87
2023/09/12 08:55:11;;;;;;;30.83;25.08;;;22.80;99.90;;;;;;5058866;28;20030;-87
2023/09/12 08:57:41;;;;;;;33.60;25.55;;;22.80;99.90;;;;;;5038811;28;20078;-87
2023/09/12 09:00:14;;;;;;;33.28;26.17;;;22.90;99.90;;;;;;5063705;28;20111;-87
2023/09/12 09:02:43;;;;;;;34.10;26.92;;;22.90;99.90;;;;;;5048728;28;20029;-87
2023/09/12 09:05:11;;;;;;;32.97;26.98;;;22.90;99.90;;;;;;5038783;28;20050;-87
2023/09/12 09:07:41;;;;;;;34.88;26.50;;;22.90;99.90;;;;;;5054912;28;20507;-87
2023/09/12 09:10:08;;;;;;;;;;;23.00;99.90;;;;;;5055920;28;20027;-86
2023/09/12 09:12:35;;;;;;;27.00;22.20;;;23.00;99.90;;;;;;5055031;28;19955;-87
2023/09/12 09:15:21;;;;;;;28.20;22.33;;;23.00;99.90;;;;;;5055450;28;20048;-87
2023/09/12 09:17:47;;;;;;;24.17;19.50;;;23.10;99.90;;;;;;5073441;28;20012;-87
2023/09/12 09:20:23;;;;;;;24.00;19.90;;;23.20;99.90;;;;;;5039066;28;20368;-87
2023/09/12 09:23:05;;;;;;;23.55;19.00;;;23.20;99.90;;;;;;5055427;28;20032;-87
2023/09/12 09:25:39;;;;;;;22.70;18.17;;;23.30;99.90;;;;;;5038710;28;20021;-87
2023/09/12 09:28:05;;;;;;;21.60;17.88;;;23.40;99.90;;;;;;5035318;28;20353;-87
2023/09/12 09:30:42;;;;;;;22.05;17.48;;;23.40;99.90;;;;;;5038160;28;20017;-87
2023/09/12 09:33:09;;;;;;;20.77;16.90;;;23.50;99.90;;;;;;5073097;28;20543;-87
2023/09/12 09:35:36;;;;;;;19.45;16.17;;;23.50;99.90;;;;;;5054786;28;20067;-87
2023/09/12 09:38:06;;;;;;;18.80;16.27;;;23.50;99.90;;;;;;5051298;28;20025;-87
2023/09/12 09:40:32;;;;;;;;;;;23.60;99.90;;;;;;5040208;28;20025;-87
2023/09/12 09:43:03;;;;;;;21.63;17.40;;;23.60;99.90;;;;;;5041276;28;19927;-87
2023/09/12 09:45:30;;;;;;;20.77;17.20;;;23.60;99.90;;;;;;5034509;28;20072;-87
2023/09/12 09:48:06;;;;;;;17.38;15.52;;;23.60;99.90;;;;;;5053931;28;20038;-88
2023/09/12 09:50:36;;;;;;;15.45;13.27;;;23.60;99.90;;;;;;5065910;28;20020;-87
2023/09/12 09:53:04;;;;;;;16.17;12.90;;;23.60;99.90;;;;;;5073224;28;20024;-87
2023/09/12 09:55:30;;;;;;;15.50;13.77;;;23.60;99.90;;;;;;5035204;28;20028;-87
2023/09/12 09:57:56;;;;;;;14.07;11.98;;;23.70;99.90;;;;;;5034988;28;20021;-87
2023/09/12 10:00:23;;;;;;;14.88;13.05;;;23.70;99.90;;;;;;5019049;28;20021;-86
2023/09/12 10:02:51;;;;;;;15.68;12.80;;;23.70;99.90;;;;;;5068769;28;20452;-87
2023/09/12 10:05:17;;;;;;;16.25;14.10;;;23.70;99.90;;;;;;5076839;28;20060;-87
2023/09/12 10:07:49;;;;;;;14.30;12.65;;;23.80;99.90;;;;;;5069746;28;20016;-87
2023/09/12 10:10:17;;;;;;;14.32;12.20;;;23.80;99.90;;;;;;5039098;28;20104;-87
2023/09/12 10:12:48;;;;;;;12.95;10.13;;;23.80;99.90;;;;;;5045778;28;20032;-87
2023/09/12 10:15:17;;;;;;;12.30;10.98;;;23.90;99.90;;;;;;5046538;28;20029;-87
2023/09/12 10:18:01;;;;;;;13.00;9.85;;;23.90;99.90;;;;;;5058685;28;20103;-87
2023/09/12 10:20:55;;;;;;;12.82;11.13;;;23.90;99.90;;;;;;5023116;28;20021;-87
2023/09/12 10:23:36;;;;;;;13.13;11.73;;;23.90;99.90;;;;;;5040474;28;20040;-86
2023/09/12 10:26:02;;;;;;;11.50;10.30;;;24.00;99.90;;;;;;5076999;28;20021;-86
2023/09/12 10:28:28;;;;;;;12.88;10.63;;;24.00;99.90;;;;;;5063727;28;20016;-87
2023/09/12 10:30:57;;;;;;;13.48;11.13;;;24.00;99.90;;;;;;5080660;28;20012;-86
2023/09/12 10:33:23;;;;;;;12.30;11.00;;;24.00;99.90;;;;;;5096296;28;20023;-86
2023/09/12 10:35:50;;;;;;;11.82;10.57;;;24.00;99.90;;;;;;5064728;28;20012;-86
2023/09/12 10:38:18;;;;;;;13.43;10.70;;;24.10;99.90;;;;;;5065836;28;20025;-87
2023/09/12 10:40:44;;;;;;;13.00;11.65;;;24.10;99.90;;;;;;5058279;28;20027;-87
2023/09/12 10:43:12;;;;;;;15.13;13.05;;;24.20;99.90;;;;;;5058337;28;20091;-87
2023/09/12 10:45:39;;;;;;;13.80;12.40;;;24.20;99.90;;;;;;5058242;28;20021;-88
2023/09/12 10:48:10;;;;;;;15.95;12.65;;;24.30;99.90;;;;;;5057237;28;20202;-87
2023/09/12 10:50:38;;;;;;;12.50;11.20;;;24.40;99.90;;;;;;5057689;28;20044;-87
2023/09/12 10:53:15;;;;;;;12.10;10.75;;;24.50;99.90;;;;;;5044193;28;20516;-87
2023/09/12 10:56:15;;;;;;;14.75;11.02;;;24.50;99.90;;;;;;5072977;28;20033;-87
2023/09/12 10:59:12;;;;;;;13.13;11.73;;;24.60;99.90;;;;;;5055321;28;20082;-87
2023/09/12 11:01:39;;;;;;;12.18;10.85;;;24.70;99.90;;;;;;5037598;28;20432;-86
2023/09/12 11:04:28;;;;;;;11.73;10.45;;;24.70;99.90;;;;;;5037237;28;20063;-87
2023/09/12 11:06:55;;;;;;;11.23;9.88;;;24.80;99.90;;;;;;5059606;28;20062;-87
2023/09/12 11:09:24;;;;;;;15.48;13.80;;;24.80;99.90;;;;;;5057639;28;20069;-87
2023/09/12 11:12:03;;;;;;;12.65;11.18;;;24.80;99.90;;;;;;5063188;28;20091;-87
2023/09/12 11:14:29;;;;;;;10.23;9.20;;;24.80;99.90;;;;;;5054014;28;20165;-87
2023/09/12 11:17:22;;;;;;;12.18;10.80;;;24.90;99.90;;;;;;5020953;28;20111;-87
2023/09/12 11:19:52;;;;;;;10.60;9.52;;;24.90;99.90;;;;;;5039588;28;20368;-87
2023/09/12 11:22:45;;;;;;;10.70;8.45;;;24.90;99.90;;;;;;5074797;28;20056;-87
2023/09/12 11:25:25;;;;;;;9.70;8.70;;;25.00;99.90;;;;;;5064701;28;20036;-87
2023/09/12 11:27:50;;;;;;;11.88;9.05;;;25.10;99.90;;;;;;5044626;28;20017;-86
2023/09/12 11:30:17;;;;;;;10.23;8.43;;;25.00;99.90;;;;;;5055137;28;20528;-86
2023/09/12 11:32:45;;;;;;;8.52;7.68;;;25.00;99.90;;;;;;5037020;28;20406;-87
2023/09/12 11:35:12;;;;;;;10.80;8.13;;;25.10;99.90;;;;;;5041569;28;20021;-86
2023/09/12 11:37:38;;;;;;;9.18;7.70;;;25.10;99.90;;;;;;5054337;28;20021;-86
2023/09/12 11:40:40;;;;;;;8.75;7.85;;;25.10;99.90;;;;;;5055141;28;20037;-86
2023/09/12 11:43:06;;;;;;;8.63;6.97;;;25.10;99.90;;;;;;5061554;28;20124;-86
2023/09/12 11:45:33;;;;;;;8.52;6.47;;;25.20;99.90;;;;;;5056704;28;20111;-86
2023/09/12 11:47:59;;;;;;;8.15;6.57;;;25.20;99.90;;;;;;5039517;28;20055;-87
2023/09/12 11:50:31;;;;;;;6.45;5.75;;;25.30;99.60;;;;;;5056522;28;20024;-87
2023/09/12 11:53:04;;;;;;;8.07;6.10;;;25.30;99.50;;;;;;5044918;28;20025;-87
2023/09/12 11:55:36;;;;;;;8.68;7.78;;;25.40;99.60;;;;;;5054733;28;20016;-86
2023/09/12 11:58:05;;;;;;;8.77;6.68;;;25.50;99.20;;;;;;5036454;28;20108;-86
2023/09/12 12:00:32;;;;;;;7.93;6.30;;;25.50;98.70;;;;;;5033688;28;20025;-86
2023/09/12 12:02:58;;;;;;;7.75;6.28;;;25.50;98.60;;;;;;5054816;28;20036;-87
2023/09/12 12:05:23;;;;;;;7.35;6.50;;;25.60;98.80;;;;;;5036484;28;20033;-86
2023/09/12 12:07:50;;;;;;;7.55;6.70;;;25.60;98.90;;;;;;5035443;28;20377;-87
2023/09/12 12:10:18;;;;;;;6.88;5.97;;;25.70;99.00;;;;;;5054158;28;20012;-87
2023/09/12 12:12:48;;;;;;;7.78;6.13;;;25.70;99.10;;;;;;5039157;28;20028;-86
2023/09/12 12:15:14;;;;;;;7.00;6.30;;;25.70;99.20;;;;;;5043873;28;20028;-87
2023/09/12 12:17:43;;;;;;;6.63;5.88;;;25.70;99.10;;;;;;5019767;28;20025;-86
2023/09/12 12:20:11;;;;;;;8.05;7.05;;;25.80;99.10;;;;;;5051078;28;20029;-87
2023/09/12 12:22:38;;;;;;;9.98;6.78;;;25.80;98.90;;;;;;5056236;28;20341;-87
2023/09/12 12:25:11;;;;;;;7.45;6.20;;;25.80;99.00;;;;;;5074193;28;20031;-87
2023/09/12 12:27:40;;;;;;;7.88;6.55;;;25.80;99.20;;;;;;5024338;28;20020;-87
2023/09/12 12:30:08;;;;;;;7.63;6.03;;;25.80;99.10;;;;;;5020712;28;20028;-87
2023/09/12 12:32:34;;;;;;;7.95;6.53;;;25.90;99.00;;;;;;5022868;28;20025;-86
2023/09/12 12:35:02;;;;;;;6.82;5.43;;;25.90;99.10;;;;;;5044159;28;20076;-87